Time;durP1;ratioP1;P1;durP2;ratioP2;P2;SDS_P1;SDS_P2;PMS_P1;PMS_P2;Temp;Humidity;BMP_temperature;BMP_pressure;BME280_temperature;BME280_humidity;BME280_pressure;Samples;Min_cycle;Max_cycle;Signal;HPM_P1;HPM_P2
2023/07/25 00:01:06;;;;;;;10.35;7.32;;;;;;;27.88;54.77;99915.28;5076078;28;20052;-57
2023/07/25 00:03:33;;;;;;;9.80;7.15;;;;;;;27.89;54.55;99913.38;5074001;28;20045;-57
2023/07/25 00:06:03;;;;;;;9.88;7.82;;;;;;;27.91;55.16;99914.00;5075357;28;20488;-57
2023/07/25 00:08:31;;;;;;;10.88;8.23;;;;;;;27.92;54.72;99904.81;5057467;28;20040;-58
2023/07/25 00:11:00;;;;;;;9.55;7.68;;;;;;;27.93;54.79;99884.72;5057539;28;20056;-58
2023/07/25 00:13:27;;;;;;;8.18;6.82;;;;;;;27.93;54.82;99890.16;5079114;28;20523;-58
2023/07/25 00:15:54;;;;;;;12.32;8.55;;;;;;;27.94;54.67;99898.09;5071462;28;20044;-58
2023/07/25 00:18:22;;;;;;;9.75;7.72;;;;;;;27.95;55.09;99897.03;5073271;28;20052;-57
2023/07/25 00:20:49;;;;;;;9.43;7.07;;;;;;;27.95;54.69;99899.75;5076022;28;20052;-58
2023/07/25 00:23:17;;;;;;;9.57;7.43;;;;;;;27.96;54.86;99900.63;5075581;28;20048;-58
2023/07/25 00:25:44;;;;;;;10.23;7.07;;;;;;;27.97;54.91;99885.97;5075122;28;20048;-60
2023/07/25 00:28:11;;;;;;;8.50;7.25;;;;;;;27.97;54.78;99897.69;5059455;28;20044;-60
2023/07/25 00:30:39;;;;;;;10.25;7.78;;;;;;;27.98;54.62;99888.47;5075439;28;20051;-58
2023/07/25 00:33:06;;;;;;;10.35;7.95;;;;;;;27.99;54.57;99881.97;5072916;28;20166;-58
2023/07/25 00:35:34;;;;;;;8.77;7.55;;;;;;;28.00;54.57;99872.78;5073032;28;20044;-58
2023/07/25 00:38:04;;;;;;;8.55;6.88;;;;;;;28.02;54.81;99884.28;5059987;28;20052;-58
2023/07/25 00:40:37;;;;;;;10.32;7.55;;;;;;;28.01;54.90;99877.16;5071605;28;20049;-58
2023/07/25 00:43:05;;;;;;;9.80;7.25;;;;;;;28.02;54.60;99881.56;5072942;28;20060;-58
2023/07/25 00:45:33;;;;;;;8.63;7.30;;;;;;;28.03;54.99;99869.59;5074531;28;20416;-58
2023/07/25 00:48:02;;;;;;;11.02;7.38;;;;;;;28.03;54.89;99845.13;5069610;28;20492;-58
2023/07/25 00:50:29;;;;;;;9.27;7.07;;;;;;;28.04;54.48;99833.22;5072890;28;20484;-58
2023/07/25 00:52:58;;;;;;;8.85;7.28;;;;;;;28.05;54.89;99826.72;5056896;28;20052;-58
2023/07/25 00:55:27;;;;;;;10.20;7.75;;;;;;;28.06;54.91;99828.38;5057486;28;20045;-58
2023/07/25 00:57:55;;;;;;;9.65;7.45;;;;;;;28.07;54.74;99845.53;5058770;28;20052;-58
2023/07/25 01:00:22;;;;;;;11.45;8.13;;;;;;;28.07;54.87;99849.09;5065799;28;20049;-57
2023/07/25 01:02:50;;;;;;;9.77;6.57;;;;;;;28.08;54.77;99869.84;5066480;28;20056;-58
2023/07/25 01:05:18;;;;;;;9.20;7.13;;;;;;;28.08;54.80;99886.16;5074343;28;20060;-57
2023/07/25 01:07:47;;;;;;;9.27;7.30;;;;;;;28.10;54.62;99899.53;5058259;28;20041;-58
2023/07/25 01:10:14;;;;;;;10.52;7.88;;;;;;;28.10;54.76;99899.53;5065108;28;20049;-58
2023/07/25 01:12:42;;;;;;;10.05;7.82;;;;;;;28.10;54.71;99894.94;5061279;28;20059;-58
2023/07/25 01:15:09;;;;;;;8.23;7.10;;;;;;;28.12;54.60;99885.75;5070236;28;20052;-58
2023/07/25 01:17:37;;;;;;;9.18;7.05;;;;;;;28.12;54.87;99872.13;5057715;28;20435;-58
2023/07/25 01:20:07;;;;;;;10.43;7.82;;;;;;;28.13;54.45;99862.91;5072858;28;20488;-58
2023/07/25 01:22:36;;;;;;;11.32;7.90;;;;;;;28.12;54.69;99883.84;5074601;28;20040;-58
2023/07/25 01:25:06;;;;;;;10.02;7.03;;;;;;;28.13;54.71;99874.63;5072783;28;20522;-58
2023/07/25 01:27:34;;;;;;;8.70;7.07;;;;;;;28.14;54.95;99859.13;5067913;28;20053;-58
2023/07/25 01:30:01;;;;;;;9.77;8.20;;;;;;;28.14;54.62;99856.41;5055846;28;20408;-58
2023/07/25 01:32:30;;;;;;;9.93;7.07;;;;;;;28.15;54.93;99852.63;5065885;28;20060;-58
2023/07/25 01:34:58;;;;;;;10.13;7.50;;;;;;;28.16;54.75;99810.78;5073467;28;20060;-58
2023/07/25 01:37:26;;;;;;;9.23;6.95;;;;;;;28.15;55.08;99845.31;5074030;28;20053;-58
2023/07/25 01:39:53;;;;;;;10.63;7.75;;;;;;;28.16;55.01;99838.84;5063214;28;20045;-58
2023/07/25 01:42:21;;;;;;;10.85;7.82;;;;;;;28.16;55.27;99822.50;5055979;28;20408;-58
2023/07/25 01:44:48;;;;;;;9.77;7.68;;;;;;;28.17;54.90;99809.72;5071809;28;20392;-58
2023/07/25 01:47:15;;;;;;;8.65;7.13;;;;;;;28.17;55.20;99807.84;5073810;28;20045;-57
2023/07/25 01:49:43;;;;;;;10.25;7.65;;;;;;;28.18;55.14;99792.34;5073803;28;20349;-57
2023/07/25 01:52:10;;;;;;;8.77;7.45;;;;;;;28.17;55.14;99786.06;5072938;28;20059;-57
2023/07/25 01:54:38;;;;;;;11.20;7.63;;;;;;;28.19;54.89;99786.69;5073341;28;20060;-57
2023/07/25 01:57:06;;;;;;;8.93;7.03;;;;;;;28.18;55.27;99793.19;5073755;28;20396;-58
2023/07/25 01:59:33;;;;;;;9.38;7.57;;;;;;;28.20;55.24;99788.38;5063214;28;20053;-58
2023/07/25 02:02:01;;;;;;;9.75;7.68;;;;;;;28.19;55.10;99780.41;5065791;28;20450;-58
2023/07/25 02:04:28;;;;;;;9.68;7.15;;;;;;;28.20;55.16;99771.22;5070595;28;20056;-58
2023/07/25 02:06:55;;;;;;;9.82;7.93;;;;;;;28.20;55.16;99761.16;5066966;28;20053;-58
2023/07/25 02:09:23;;;;;;;9.32;7.38;;;;;;;28.22;55.08;99753.59;5055535;28;20037;-58
2023/07/25 02:11:50;;;;;;;10.25;7.65;;;;;;;28.22;55.54;99736.44;5066964;28;20048;-58
2023/07/25 02:14:18;;;;;;;9.00;7.68;;;;;;;28.22;55.53;99733.72;5055484;28;20060;-58
2023/07/25 02:16:45;;;;;;;8.35;6.97;;;;;;;28.23;55.13;99716.31;5067293;28;20056;-58
2023/07/25 02:19:13;;;;;;;10.98;7.10;;;;;;;28.22;55.54;99706.50;5077903;28;20048;-58
2023/07/25 02:21:40;;;;;;;8.82;7.15;;;;;;;28.23;55.22;99705.44;5058698;28;20417;-58
2023/07/25 02:24:08;;;;;;;9.20;7.35;;;;;;;28.23;55.71;99709.00;5054697;28;20049;-58
2023/07/25 02:26:35;;;;;;;9.27;7.28;;;;;;;28.22;55.50;99701.88;5071548;28;20049;-57
2023/07/25 02:29:03;;;;;;;12.27;8.23;;;;;;;28.22;55.39;99684.72;5073289;28;20049;-58
2023/07/25 02:31:31;;;;;;;9.90;6.93;;;;;;;28.23;55.59;99683.66;5073063;28;20060;-58
2023/07/25 02:33:59;;;;;;;12.80;8.13;;;;;;;28.23;55.58;99700.81;5055725;28;20061;-58
2023/07/25 02:36:26;;;;;;;9.48;7.65;;;;;;;28.22;55.32;99691.00;5072840;28;20056;-57
2023/07/25 02:38:53;;;;;;;9.95;8.10;;;;;;;28.22;55.61;99677.41;5073079;28;20049;-57
2023/07/25 02:41:21;;;;;;;9.40;7.03;;;;;;;28.23;55.63;99680.94;5058458;28;20076;-58
2023/07/25 02:43:48;;;;;;;9.90;7.75;;;;;;;28.22;55.29;99661.06;5070536;28;20475;-57
2023/07/25 02:46:16;;;;;;;10.23;7.22;;;;;;;28.22;55.53;99660.22;5073316;28;20492;-58
2023/07/25 02:48:43;;;;;;;9.82;7.53;;;;;;;28.23;55.23;99664.63;5073475;28;20043;-57
2023/07/25 02:51:12;;;;;;;8.32;6.95;;;;;;;28.22;55.05;99671.13;5071464;28;20044;-57
2023/07/25 02:53:39;;;;;;;8.70;7.32;;;;;;;28.21;54.95;99653.97;5072917;28;20052;-57
2023/07/25 02:56:06;;;;;;;8.57;6.55;;;;;;;28.23;55.41;99596.59;5073299;28;20393;-57
2023/07/25 02:58:34;;;;;;;7.53;6.30;;;;;;;28.23;55.50;99604.75;5062301;28;20377;-58
2023/07/25 03:01:02;;;;;;;8.43;6.65;;;;;;;28.23;55.12;99623.78;5066326;28;20063;-58
2023/07/25 03:03:29;;;;;;;10.18;6.90;;;;;;;28.23;55.05;99611.03;5058067;28;20056;-58
2023/07/25 03:05:57;;;;;;;9.30;6.70;;;;;;;28.23;55.14;99616.47;5062450;28;20044;-58
2023/07/25 03:08:24;;;;;;;9.02;6.55;;;;;;;28.24;55.41;99614.59;5077136;28;20396;-58
2023/07/25 03:10:52;;;;;;;9.07;6.18;;;;;;;28.24;55.14;99607.25;5061699;28;20045;-57
2023/07/25 03:13:19;;;;;;;8.35;6.25;;;;;;;28.22;55.46;99587.59;5059208;28;20492;-57
2023/07/25 03:15:46;;;;;;;10.23;6.38;;;;;;;28.23;55.46;99604.75;5062097;28;20049;-57
2023/07/25 03:18:14;;;;;;;9.65;6.95;;;;;;;28.24;55.52;99620.03;5073908;28;20487;-58
2023/07/25 03:20:41;;;;;;;9.30;6.72;;;;;;;28.25;55.48;99643.47;5073214;28;20511;-60
2023/07/25 03:23:08;;;;;;;9.90;7.13;;;;;;;28.24;55.55;99653.53;5076661;28;20404;-60
2023/07/25 03:25:36;;;;;;;7.55;6.65;;;;;;;28.23;55.33;99678.22;5070076;28;20519;-60
2023/07/25 03:28:03;;;;;;;9.40;6.75;;;;;;;28.23;55.51;99678.22;5056749;28;20052;-66
2023/07/25 03:30:31;;;;;;;8.57;6.32;;;;;;;28.21;55.40;99681.19;5069685;28;20053;-67
2023/07/25 03:32:58;;;;;;;10.32;6.50;;;;;;;28.20;55.55;99705.91;5075901;28;20495;-67
2023/07/25 03:35:26;;;;;;;9.27;6.90;;;;;;;28.19;55.38;99694.16;5076533;28;20472;-67
2023/07/25 03:37:53;;;;;;;7.68;5.88;;;;;;;28.18;55.58;99710.72;5076455;28;20055;-66
2023/07/25 03:40:20;;;;;;;10.00;6.40;;;;;;;28.18;55.05;99702.53;5076057;28;20041;-67
2023/07/25 03:42:48;;;;;;;9.05;6.32;;;;;;;28.18;55.72;99675.34;5076016;28;20044;-67
2023/07/25 03:45:15;;;;;;;10.45;6.75;;;;;;;28.17;55.55;99619.25;5069514;28;20064;-67
2023/07/25 03:47:42;;;;;;;8.32;5.70;;;;;;;28.15;55.28;99551.41;5058429;28;20503;-67
2023/07/25 03:50:10;;;;;;;8.77;6.00;;;;;;;28.15;55.41;99512.50;5067897;28;20063;-67
2023/07/25 03:52:37;;;;;;;7.63;5.45;;;;;;;28.14;55.52;99484.47;5059317;28;20052;-67
2023/07/25 03:55:05;;;;;;;7.68;6.63;;;;;;;28.14;55.95;99554.38;5059918;28;20048;-60
2023/07/25 03:57:32;;;;;;;8.98;5.97;;;;;;;28.13;55.75;99602.53;5076234;28;20045;-60
2023/07/25 04:00:00;;;;;;;10.52;6.10;;;;;;;28.14;56.44;99623.22;5075834;28;20056;-60
2023/07/25 04:02:27;;;;;;;8.25;5.80;;;;;;;28.14;56.22;99608.78;5075700;28;20059;-60
2023/07/25 04:04:55;;;;;;;7.95;5.70;;;;;;;28.14;55.99;99622.41;5075837;28;20526;-60
2023/07/25 04:07:22;;;;;;;8.05;5.28;;;;;;;28.14;56.05;99641.44;5075776;28;20045;-60
2023/07/25 04:09:49;;;;;;;6.70;5.10;;;;;;;28.13;56.37;99643.34;5061004;28;20056;-60
2023/07/25 04:12:17;;;;;;;8.27;5.57;;;;;;;28.13;56.01;99659.66;5058587;28;20048;-60
2023/07/25 04:14:44;;;;;;;8.18;5.65;;;;;;;28.14;56.09;99701.31;5057420;28;20056;-60
2023/07/25 04:17:12;;;;;;;9.32;5.80;;;;;;;28.14;56.30;99733.97;5057717;28;20053;-61
2023/07/25 04:19:39;;;;;;;8.43;5.47;;;;;;;28.13;55.92;99773.94;5057678;28;20057;-60
2023/07/25 04:22:06;;;;;;;7.72;5.25;;;;;;;28.10;55.81;99794.25;5056714;28;20049;-61
2023/07/25 04:24:34;;;;;;;8.48;5.47;;;;;;;28.10;55.64;99787.97;5054256;28;20052;-61
2023/07/25 04:27:01;;;;;;;8.98;5.68;;;;;;;28.06;55.75;99762.25;5064936;28;20503;-61
2023/07/25 04:29:28;;;;;;;7.88;5.10;;;;;;;28.06;55.53;99737.75;5075192;28;20048;-61
2023/07/25 04:31:56;;;;;;;7.57;5.20;;;;;;;28.04;55.31;99757.03;5072990;28;20055;-61
2023/07/25 04:34:23;;;;;;;7.35;5.50;;;;;;;28.04;55.25;99784.25;5074809;28;20064;-61
2023/07/25 04:36:51;;;;;;;7.30;5.25;;;;;;;28.04;54.79;99789.69;5075373;28;20060;-66
2023/07/25 04:39:18;;;;;;;10.18;5.50;;;;;;;28.05;55.03;99764.13;5075714;28;20052;-66
2023/07/25 04:41:46;;;;;;;7.63;5.55;;;;;;;28.04;54.75;99699.06;5075046;28;20053;-66
2023/07/25 04:44:13;;;;;;;8.25;5.40;;;;;;;28.04;55.12;99724.38;5068799;28;20506;-66
2023/07/25 04:46:41;;;;;;;8.38;5.88;;;;;;;28.02;54.83;99704.72;5063626;28;20057;-66
2023/07/25 04:49:11;;;;;;;8.98;6.22;;;;;;;28.01;54.81;99765.63;5060363;28;20045;-66
2023/07/25 04:51:39;;;;;;;8.35;5.90;;;;;;;28.01;55.07;99746.56;5072299;28;20039;-68
2023/07/25 04:54:07;;;;;;;8.00;5.88;;;;;;;28.00;54.64;99765.84;5074586;28;20072;-68
2023/07/25 04:56:35;;;;;;;7.18;5.13;;;;;;;27.99;54.62;99770.41;5074866;28;20045;-61
2023/07/25 04:59:02;;;;;;;8.35;5.70;;;;;;;27.98;54.94;99757.88;5074802;28;20384;-61
2023/07/25 05:01:30;;;;;;;9.18;6.55;;;;;;;27.97;55.14;99777.97;5074085;28;20040;-60
2023/07/25 05:03:57;;;;;;;9.15;6.57;;;;;;;27.98;55.00;99795.97;5074634;28;20045;-61
2023/07/25 05:06:26;;;;;;;7.03;5.78;;;;;;;27.98;55.27;99828.63;5074630;28;20040;-62
2023/07/25 05:08:53;;;;;;;9.55;6.07;;;;;;;27.97;54.84;99854.16;5074370;28;20075;-67
2023/07/25 05:11:21;;;;;;;9.93;6.90;;;;;;;27.98;55.06;99861.25;5074459;28;20032;-66
2023/07/25 05:13:48;;;;;;;11.73;6.90;;;;;;;27.99;54.92;99876.53;5074503;28;20070;-67
2023/07/25 05:16:15;;;;;;;10.10;7.35;;;;;;;28.00;54.78;99878.22;5074434;28;20048;-69
2023/07/25 05:18:45;;;;;;;8.20;6.05;;;;;;;28.01;54.94;99882.59;5074596;28;20044;-68
2023/07/25 05:21:12;;;;;;;10.10;6.15;;;;;;;28.02;54.57;99887.00;5073954;28;20044;-68
2023/07/25 05:23:39;;;;;;;9.15;6.35;;;;;;;28.02;54.82;99867.94;5074092;28;20040;-68
2023/07/25 05:26:06;;;;;;;10.60;6.32;;;;;;;28.04;55.20;99844.09;5073096;28;20047;-68
2023/07/25 05:28:34;;;;;;;8.90;6.68;;;;;;;28.03;54.80;99798.88;5074192;28;20044;-62
2023/07/25 05:31:01;;;;;;;7.63;5.88;;;;;;;28.04;55.15;99849.53;5073952;28;20415;-60
2023/07/25 05:33:28;;;;;;;9.20;6.18;;;;;;;28.05;55.04;99801.41;5072480;28;20056;-61
2023/07/25 05:36:03;;;;;;;7.10;5.78;;;;;;;28.05;55.01;99785.91;5073839;28;20048;-61
2023/07/25 05:38:30;;;;;;;8.05;5.97;;;;;;;28.05;54.65;99780.47;5072046;28;20048;-67
2023/07/25 05:40:57;;;;;;;7.68;5.90;;;;;;;28.05;55.14;99785.91;5072559;28;20048;-67
2023/07/25 05:43:25;;;;;;;8.05;6.13;;;;;;;28.06;54.76;99828.38;5074337;28;20395;-67
2023/07/25 05:45:52;;;;;;;7.13;5.97;;;;;;;28.06;54.86;99852.88;5073880;28;20063;-68
2023/07/25 05:48:20;;;;;;;8.18;6.43;;;;;;;28.07;54.80;99807.44;5059406;28;20424;-68
2023/07/25 05:50:51;;;;;;;8.75;6.45;;;;;;;28.06;55.21;99691.50;5072855;28;20488;-68
2023/07/25 05:53:19;;;;;;;9.43;6.20;;;;;;;28.04;55.08;99767.91;5073792;28;20511;-67
2023/07/25 05:55:47;;;;;;;7.75;6.38;;;;;;;28.04;55.23;99788.84;5061087;28;20072;-67
2023/07/25 05:58:15;;;;;;;8.00;5.55;;;;;;;28.03;55.13;99749.91;5055652;28;20045;-68
2023/07/25 06:00:43;;;;;;;10.77;6.72;;;;;;;28.03;55.23;99820.63;5072258;28;20046;-68
2023/07/25 06:03:13;;;;;;;8.70;6.13;;;;;;;28.06;55.39;99854.75;5073753;28;20059;-68
2023/07/25 06:05:41;;;;;;;8.30;6.22;;;;;;;28.05;55.75;99821.28;5073897;28;20480;-68
2023/07/25 06:08:09;;;;;;;8.90;6.32;;;;;;;28.06;55.85;99790.28;5071734;28;20044;-61
2023/07/25 06:10:36;;;;;;;9.48;6.50;;;;;;;28.07;56.06;99834.66;5073387;28;20063;-61
2023/07/25 06:13:04;;;;;;;9.40;7.05;;;;;;;28.07;55.85;99868.13;5074049;28;20040;-61
2023/07/25 06:15:34;;;;;;;8.07;6.85;;;;;;;28.06;55.78;99865.63;5073423;28;20048;-61
2023/07/25 06:18:03;;;;;;;8.48;6.70;;;;;;;28.07;56.23;99864.59;5073266;28;20049;-63
2023/07/25 06:20:32;;;;;;;10.32;6.70;;;;;;;28.07;55.95;99837.38;5058092;28;20051;-63
2023/07/25 06:23:01;;;;;;;8.95;6.85;;;;;;;28.05;55.90;99831.31;5073377;28;20412;-63
2023/07/25 06:25:29;;;;;;;8.25;6.30;;;;;;;28.00;56.28;99818.38;5073585;28;20045;-63
2023/07/25 06:27:56;;;;;;;10.07;7.13;;;;;;;27.96;56.00;99814.41;5073280;28;20056;-63
2023/07/25 06:30:23;;;;;;;10.38;7.82;;;;;;;27.87;56.32;99774.84;5073474;28;20523;-62
2023/07/25 06:32:51;;;;;;;15.45;9.07;;;;;;;27.60;56.49;99752.31;5063219;28;20045;-62
2023/07/25 06:35:22;;;;;;;11.07;9.02;;;;;;;27.33;57.33;99743.38;5066382;28;20075;-60
2023/07/25 06:37:49;;;;;;;12.88;8.90;;;;;;;27.09;58.07;99732.06;5074230;28;20044;-60
2023/07/25 06:40:17;;;;;;;15.18;9.05;;;;;;;26.94;58.61;99695.28;5080040;28;20052;-60
2023/07/25 06:42:44;;;;;;;10.32;7.80;;;;;;;26.76;59.17;99666.88;5079889;28;20043;-60
2023/07/25 06:45:14;;;;;;;11.45;8.35;;;;;;;26.62;59.46;99678.81;5065221;28;20053;-60
2023/07/25 06:47:41;;;;;;;13.60;9.65;;;;;;;26.46;59.90;99680.03;5075856;28;20401;-66
2023/07/25 06:50:09;;;;;;;12.75;8.05;;;;;;;26.34;60.14;99685.19;5079596;28;20399;-65
2023/07/25 06:52:36;;;;;;;12.30;8.45;;;;;;;26.27;60.30;99645.53;5079507;28;20048;-66
2023/07/25 06:55:06;;;;;;;11.10;7.53;;;;;;;26.22;60.44;99602.75;5079721;28;20403;-65
2023/07/25 06:57:33;;;;;;;12.43;8.20;;;;;;;26.27;60.58;99607.53;5078852;28;20067;-66
2023/07/25 07:00:00;;;;;;;11.25;7.32;;;;;;;26.35;60.41;99643.44;5079092;28;20048;-66
2023/07/25 07:02:28;;;;;;;10.90;7.78;;;;;;;26.46;59.97;99652.91;5069219;28;20056;-66
2023/07/25 07:04:58;;;;;;;11.55;7.90;;;;;;;26.53;59.80;99689.00;5079339;28;20044;-65
2023/07/25 07:07:30;;;;;;;12.30;8.27;;;;;;;26.62;59.58;99641.63;5078134;28;20041;-61
2023/07/25 07:09:57;;;;;;;9.48;6.90;;;;;;;26.70;59.06;99607.16;5078330;28;20392;-61
2023/07/25 07:12:25;;;;;;;12.05;6.90;;;;;;;26.77;59.18;99637.84;5077208;28;20491;-61
2023/07/25 07:14:52;;;;;;;9.32;6.63;;;;;;;26.79;58.92;99661.06;5079268;28;20051;-61
2023/07/25 07:17:20;;;;;;;8.52;6.78;;;;;;;26.84;59.01;99696.56;5076978;28;20400;-66
2023/07/25 07:19:47;;;;;;;11.35;8.23;;;;;;;26.89;58.73;99728.50;5079210;28;20052;-65
2023/07/25 07:22:14;;;;;;;11.20;7.25;;;;;;;26.93;58.73;99737.06;5079046;28;20052;-65
2023/07/25 07:24:42;;;;;;;9.48;7.18;;;;;;;26.95;58.67;99733.13;5078979;28;20542;-66
2023/07/25 07:27:09;;;;;;;11.32;8.20;;;;;;;26.98;58.77;99734.56;5079330;28;20060;-61
2023/07/25 07:29:37;;;;;;;13.05;8.55;;;;;;;27.00;58.70;99733.31;5079012;28;20048;-61
2023/07/25 07:32:04;;;;;;;13.27;8.48;;;;;;;27.04;58.89;99737.28;5079120;28;20411;-61
2023/07/25 07:34:32;;;;;;;11.10;8.45;;;;;;;27.05;58.97;99752.53;5063278;28;20053;-61
2023/07/25 07:36:59;;;;;;;14.60;8.43;;;;;;;27.05;58.70;99755.25;5062506;28;20051;-61
2023/07/25 07:39:26;;;;;;;11.20;8.63;;;;;;;27.03;59.07;99738.34;5067416;28;20041;-61
2023/07/25 07:41:54;;;;;;;17.33;12.00;;;;;;;27.02;59.12;99720.38;5061104;28;20049;-61
2023/07/25 07:44:21;;;;;;;18.90;13.15;;;;;;;26.96;59.34;99713.06;5060677;28;20497;-61
2023/07/25 07:46:51;;;;;;;18.48;12.77;;;;;;;26.95;59.33;99737.72;5061905;28;20052;-61
2023/07/25 07:49:19;;;;;;;15.25;12.35;;;;;;;26.91;59.34;99745.44;5071965;28;20044;-65
2023/07/25 07:51:46;;;;;;;15.15;11.85;;;;;;;26.92;59.17;99751.72;5075963;28;20048;-64
2023/07/25 07:54:33;;;;;;;14.82;9.45;;;;;;;26.94;59.12;99736.03;5075570;28;20515;-65
2023/07/25 07:57:00;;;;;;;11.68;8.38;;;;;;;26.98;59.10;99734.56;5075740;28;20373;-60
2023/07/25 07:59:28;;;;;;;12.40;8.52;;;;;;;27.02;58.86;99719.53;5075697;28;20435;-61
2023/07/25 08:01:55;;;;;;;10.88;7.50;;;;;;;27.06;58.83;99724.34;5075653;28;20048;-61
2023/07/25 08:04:23;;;;;;;11.02;7.22;;;;;;;27.08;58.55;99767.59;5075410;28;20395;-61
2023/07/25 08:06:50;;;;;;;9.13;7.45;;;;;;;27.10;58.62;99779.97;5075651;28;20040;-61
2023/07/25 08:09:18;;;;;;;9.05;7.32;;;;;;;27.10;58.88;99822.56;5075505;28;20487;-61
2023/07/25 08:11:45;;;;;;;8.98;6.68;;;;;;;27.10;59.02;99857.91;5075294;28;20044;-61
2023/07/25 08:14:12;;;;;;;9.77;6.80;;;;;;;27.05;58.80;99858.47;5071666;28;20056;-61
2023/07/25 08:16:40;;;;;;;10.13;7.47;;;;;;;27.03;59.36;99851.59;5069755;28;20053;-66
2023/07/25 08:19:07;;;;;;;10.15;7.57;;;;;;;26.99;59.17;99869.34;5066878;28;20377;-66
2023/07/25 08:21:35;;;;;;;9.90;7.00;;;;;;;26.94;59.44;99878.13;5074990;28;20052;-66
2023/07/25 08:24:04;;;;;;;11.40;7.05;;;;;;;26.93;59.32;99876.44;5074734;28;20037;-66
2023/07/25 08:26:31;;;;;;;10.35;6.57;;;;;;;26.88;59.53;99871.63;5075482;28;20053;-61
2023/07/25 08:28:59;;;;;;;8.85;6.60;;;;;;;26.87;59.56;99863.69;5065488;28;20048;-60
2023/07/25 08:31:26;;;;;;;7.50;6.03;;;;;;;26.86;59.38;99838.41;5070311;28;20059;-60
2023/07/25 08:33:55;;;;;;;8.45;6.43;;;;;;;26.88;59.60;99838.19;5071186;28;20053;-61
2023/07/25 08:36:23;;;;;;;8.55;6.35;;;;;;;26.87;59.61;99812.09;5060476;28;20052;-65
2023/07/25 08:38:50;;;;;;;7.70;5.00;;;;;;;26.87;59.43;99802.06;5072721;28;20041;-61
2023/07/25 08:41:25;;;;;;;6.07;4.15;;;;;;;26.89;59.64;99785.53;5074537;28;20051;-61
2023/07/25 08:43:54;;;;;;;6.75;4.03;;;;;;;26.92;59.22;99784.31;5073229;28;20051;-61
2023/07/25 08:46:27;;;;;;;5.47;3.33;;;;;;;26.93;58.70;99772.38;5074506;28;20048;-64
2023/07/25 08:49:00;;;;;;;3.92;2.85;;;;;;;26.95;58.57;99767.59;5074667;28;20051;-66
2023/07/25 08:51:28;;;;;;;4.80;2.63;;;;;;;26.98;58.12;99757.16;5058556;28;20400;-66
2023/07/25 08:54:02;;;;;;;5.28;2.90;;;;;;;27.04;58.31;99755.47;5062649;28;20040;-66
2023/07/25 08:56:30;;;;;;;5.65;3.00;;;;;;;27.10;58.23;99757.38;5074448;28;20051;-61
2023/07/25 08:58:58;;;;;;;4.30;3.08;;;;;;;27.17;57.90;99768.25;5074262;28;20045;-61
2023/07/25 09:01:27;;;;;;;4.15;2.65;;;;;;;27.23;57.92;99759.28;5074156;28;20049;-61
2023/07/25 09:03:55;;;;;;;5.00;2.55;;;;;;;27.29;57.58;99750.28;5074144;28;20041;-61
2023/07/25 09:06:23;;;;;;;3.95;2.63;;;;;;;27.34;57.63;99739.59;5074558;28;20059;-63
2023/07/25 09:08:50;;;;;;;4.43;2.50;;;;;;;27.39;57.30;99731.66;5074205;28;20056;-66
2023/07/25 09:11:20;;;;;;;6.25;2.63;;;;;;;27.43;56.92;99738.34;5074008;28;20047;-65
2023/07/25 09:13:48;;;;;;;5.32;2.45;;;;;;;27.47;56.83;99736.88;5067931;28;20499;-66
2023/07/25 09:16:15;;;;;;;4.72;2.33;;;;;;;27.49;56.73;99729.34;5067791;28;20048;-65
2023/07/25 09:18:43;;;;;;;4.28;2.70;;;;;;;27.53;56.90;99727.84;5064007;28;20059;-62
2023/07/25 09:21:13;;;;;;;3.72;2.13;;;;;;;27.56;56.84;99726.59;5072017;28;20045;-61
2023/07/25 09:23:51;;;;;;;4.57;2.35;;;;;;;27.58;56.34;99722.59;5073959;28;20040;-60
2023/07/25 09:26:21;;;;;;;3.90;2.20;;;;;;;27.61;56.49;99719.47;5060710;28;20049;-64
2023/07/25 09:28:51;;;;;;;3.08;1.98;;;;;;;27.64;56.04;99715.50;5060094;28;20500;-65
2023/07/25 09:31:20;;;;;;;3.45;2.55;;;;;;;27.66;56.16;99715.28;5073613;28;20045;-60
2023/07/25 09:33:49;;;;;;;3.40;2.33;;;;;;;27.69;55.48;99710.25;5073387;28;20051;-60
2023/07/25 09:36:20;;;;;;;3.28;2.00;;;;;;;27.71;55.49;99710.88;5073733;28;20048;-60
2023/07/25 09:38:53;;;;;;;3.47;2.00;;;;;;;27.74;55.59;99710.47;5073385;28;20045;-66
2023/07/25 09:41:23;;;;;;;3.13;1.75;;;;;;;27.77;55.51;99710.03;5073740;28;20052;-66
2023/07/25 09:43:51;;;;;;;3.83;2.13;;;;;;;27.79;54.81;99699.81;5073552;28;20041;-66
2023/07/25 09:46:19;;;;;;;3.42;2.08;;;;;;;27.82;54.84;99704.78;5073424;28;20385;-61
2023/07/25 09:48:50;;;;;;;3.60;2.47;;;;;;;27.83;55.00;99703.75;5071027;28;20048;-60
2023/07/25 09:51:17;;;;;;;5.68;2.85;;;;;;;27.85;55.05;99704.38;5055415;28;20053;-60
2023/07/25 09:53:50;;;;;;;3.63;2.53;;;;;;;27.86;54.86;99697.03;5058907;28;20036;-60
2023/07/25 09:56:23;;;;;;;5.25;2.88;;;;;;;27.88;54.85;99708.56;5073252;28;20052;-60
2023/07/25 09:58:51;;;;;;;5.82;3.33;;;;;;;27.92;54.73;99703.53;5057943;28;20041;-65
2023/07/25 10:01:35;;;;;;;7.55;3.95;;;;;;;27.93;54.91;99702.47;5073215;28;20052;-66
2023/07/25 10:04:04;;;;;;;4.40;3.30;;;;;;;27.94;54.91;99688.63;5073039;28;20037;-66
2023/07/25 10:06:35;;;;;;;6.82;3.85;;;;;;;27.96;54.30;99691.16;5073074;28;20476;-60
2023/07/25 10:09:03;;;;;;;7.10;4.22;;;;;;;27.97;54.24;99687.38;5073106;28;20055;-60
2023/07/25 10:11:31;;;;;;;6.18;3.67;;;;;;;27.98;54.18;99684.44;5073132;28;20051;-60
2023/07/25 10:14:00;;;;;;;4.60;3.53;;;;;;;27.99;54.31;99683.38;5072490;28;20044;-60
2023/07/25 10:16:28;;;;;;;6.55;4.13;;;;;;;27.99;54.15;99688.81;5056948;28;20041;-60
2023/07/25 10:18:58;;;;;;;5.65;4.25;;;;;;;28.01;54.56;99688.59;5073171;28;20066;-60
2023/07/25 10:21:27;;;;;;;5.47;3.28;;;;;;;28.02;54.53;99687.56;5073115;28;20504;-60
2023/07/25 10:24:02;;;;;;;5.60;3.45;;;;;;;28.02;54.66;99680.22;5072733;28;20037;-60
2023/07/25 10:26:30;;;;;;;5.13;3.67;;;;;;;28.02;54.36;99666.63;5071810;28;20040;-59
2023/07/25 10:28:59;;;;;;;5.53;3.30;;;;;;;28.03;54.41;99672.88;5065615;28;20056;-60
2023/07/25 10:31:33;;;;;;;5.75;3.95;;;;;;;28.05;54.71;99662.63;5073019;28;20060;-60
2023/07/25 10:34:02;;;;;;;7.50;4.00;;;;;;;28.05;54.74;99654.47;5069115;28;20430;-60
2023/07/25 10:36:29;;;;;;;5.53;3.58;;;;;;;28.04;54.77;99645.47;5061913;28;20044;-65
2023/07/25 10:39:06;;;;;;;6.15;3.92;;;;;;;28.06;54.54;99642.53;5073168;28;20053;-65
2023/07/25 10:41:33;;;;;;;6.75;4.55;;;;;;;28.06;54.59;99639.81;5073038;28;20071;-65
2023/07/25 10:44:01;;;;;;;4.97;3.60;;;;;;;28.05;54.67;99638.16;5072242;28;20036;-66
2023/07/25 10:46:32;;;;;;;7.78;4.30;;;;;;;28.05;54.50;99632.72;5072775;28;20063;-60
2023/07/25 10:49:16;;;;;;;6.10;4.38;;;;;;;28.05;54.32;99633.53;5062618;28;20519;-60
2023/07/25 10:51:54;;;;;;;7.93;4.40;;;;;;;28.05;54.71;99630.81;5071952;28;20045;-60
2023/07/25 10:54:24;;;;;;;6.00;4.57;;;;;;;28.06;54.11;99612.59;5072823;28;20392;-60
2023/07/25 10:57:24;;;;;;;6.30;4.57;;;;;;;28.06;54.54;99612.59;5072866;28;20049;-65
2023/07/25 11:00:04;;;;;;;5.53;4.18;;;;;;;28.06;54.23;99602.56;5065500;28;20064;-65
2023/07/25 11:02:44;;;;;;;8.52;5.50;;;;;;;28.06;54.23;99608.00;5062319;28;20052;-65
2023/07/25 11:05:14;;;;;;;5.15;4.20;;;;;;;28.07;54.58;99604.22;5066449;28;20041;-65
2023/07/25 11:07:45;;;;;;;5.13;3.97;;;;;;;28.09;54.64;99601.28;5072086;28;20071;-60
2023/07/25 11:10:22;;;;;;;5.80;4.43;;;;;;;28.08;54.30;99584.13;5072294;28;20044;-60
2023/07/25 11:12:58;;;;;;;7.10;4.90;;;;;;;28.09;54.71;99593.97;5072325;28;20499;-59
2023/07/25 11:15:26;;;;;;;6.03;4.35;;;;;;;28.10;54.53;99592.91;5072300;28;20041;-59
2023/07/25 11:17:57;;;;;;;6.97;4.65;;;;;;;28.12;54.66;99581.00;5072409;28;20044;-59
2023/07/25 11:20:24;;;;;;;4.78;4.05;;;;;;;28.12;54.43;99579.09;5060005;28;20041;-59
2023/07/25 11:22:53;;;;;;;6.15;4.78;;;;;;;28.13;54.27;99577.19;5056164;28;20040;-59
2023/07/25 11:25:22;;;;;;;6.55;4.45;;;;;;;28.14;54.63;99570.69;5066101;28;20040;-60
2023/07/25 11:27:49;;;;;;;8.32;5.35;;;;;;;28.14;54.61;99571.53;5076101;28;20412;-58
2023/07/25 11:30:19;;;;;;;8.20;5.35;;;;;;;28.15;54.66;99561.47;5075964;28;20492;-59
2023/07/25 11:32:48;;;;;;;7.53;5.15;;;;;;;28.17;54.46;99567.53;5073721;28;20495;-59
2023/07/25 11:35:16;;;;;;;7.95;5.63;;;;;;;28.18;54.27;99566.47;5069153;28;20052;-57
2023/07/25 11:37:46;;;;;;;9.07;5.57;;;;;;;28.20;54.22;99565.22;5064955;28;20519;-61